Terminal Aerodrome Forecast
Issued by NWS Cleveland, OH

Home | Current Version | Previous Version | Graphics & Text | Print | Product List | Glossary On
Versions: 1 2 3 4 5 6 7 8 9 10 11 12 13 14 15
000
FTUS41 KCLE 190538
TAFMFD
TAF
KMFD 190538Z 1906/2006 25004KT P6SM FEW030 SCT200
     FM191000 23004KT P6SM SCT030 BKN120
     FM191600 25008KT P6SM BKN035 PROB30 1916/1921 4SM -TSRA
      BKN035CB
     FM192100 29010KT P6SM BKN045 BKN100
     FM200000 VRB03KT P6SM FEW200=

USA.gov is the U.S. government's official web portal to all federal, state and local government web resources and services.